sensor_id;sensor_type;location;lat;lon;timestamp;temperature;humidity
10441;DHT22;5268;49.346;9.522;2023-02-01T04:09:46;5.20;99.90
10441;DHT22;5268;49.346;9.522;2023-02-01T04:14:48;5.20;99.90
10441;DHT22;5268;49.346;9.522;2023-02-01T04:19:50;5.20;99.90
10441;DHT22;5268;49.346;9.522;2023-02-01T04:24:53;5.20;99.90
10441;DHT22;5268;49.346;9.522;2023-02-01T04:29:55;5.20;99.90
10441;DHT22;5268;49.346;9.522;2023-02-01T04:34:57;5.20;99.90
10441;DHT22;5268;49.346;9.522;2023-02-01T04:40:01;5.20;99.90
10441;DHT22;5268;49.346;9.522;2023-02-01T04:45:05;5.20;99.90
10441;DHT22;5268;49.346;9.522;2023-02-01T04:50:08;5.20;99.90
10441;DHT22;5268;49.346;9.522;2023-02-01T04:55:12;5.20;99.90
10441;DHT22;5268;49.346;9.522;2023-02-01T05:00:15;5.20;99.90
10441;DHT22;5268;49.346;9.522;2023-02-01T05:05:17;5.30;99.90
10441;DHT22;5268;49.346;9.522;2023-02-01T05:10:21;5.30;99.90
10441;DHT22;5268;49.346;9.522;2023-02-01T05:15:23;5.30;99.90
10441;DHT22;5268;49.346;9.522;2023-02-01T05:20:25;5.30;99.90
10441;DHT22;5268;49.346;9.522;2023-02-01T05:25:29;5.30;99.90
10441;DHT22;5268;49.346;9.522;2023-02-01T05:30:32;5.30;99.90
10441;DHT22;5268;49.346;9.522;2023-02-01T05:35:35;5.30;99.90
10441;DHT22;5268;49.346;9.522;2023-02-01T05:40:39;5.30;99.90
10441;DHT22;5268;49.346;9.522;2023-02-01T05:45:41;5.30;99.90
10441;DHT22;5268;49.346;9.522;2023-02-01T05:50:43;5.30;99.90
10441;DHT22;5268;49.346;9.522;2023-02-01T05:55:47;5.30;99.90
10441;DHT22;5268;49.346;9.522;2023-02-01T06:00:49;5.30;99.90
10441;DHT22;5268;49.346;9.522;2023-02-01T06:05:51;5.30;99.90
10441;DHT22;5268;49.346;9.522;2023-02-01T06:10:58;5.30;99.90
10441;DHT22;5268;49.346;9.522;2023-02-01T06:16:01;5.30;99.90
10441;DHT22;5268;49.346;9.522;2023-02-01T06:21:04;5.30;99.90
10441;DHT22;5268;49.346;9.522;2023-02-01T06:26:07;5.20;99.90
10441;DHT22;5268;49.346;9.522;2023-02-01T06:31:09;5.20;99.90
10441;DHT22;5268;49.346;9.522;2023-02-01T06:36:12;5.20;99.90
10441;DHT22;5268;49.346;9.522;2023-02-01T06:41:17;5.20;99.90
10441;DHT22;5268;49.346;9.522;2023-02-01T06:46:21;5.10;99.90
10441;DHT22;5268;49.346;9.522;2023-02-01T06:51:24;5.10;99.90
10441;DHT22;5268;49.346;9.522;2023-02-01T06:56:28;5.10;99.90
10441;DHT22;5268;49.346;9.522;2023-02-01T07:01:32;5.10;99.90
10441;DHT22;5268;49.346;9.522;2023-02-01T07:06:33;5.10;99.90
10441;DHT22;5268;49.346;9.522;2023-02-01T07:11:37;5.10;99.90
10441;DHT22;5268;49.346;9.522;2023-02-01T07:16:41;5.10;99.90
10441;DHT22;5268;49.346;9.522;2023-02-01T07:21:43;5.10;99.90
10441;DHT22;5268;49.346;9.522;2023-02-01T07:26:47;5.10;99.90
10441;DHT22;5268;49.346;9.522;2023-02-01T07:31:51;5.10;99.90
10441;DHT22;5268;49.346;9.522;2023-02-01T07:36:53;5.10;99.90
10441;DHT22;5268;49.346;9.522;2023-02-01T07:41:57;5.10;99.90
10441;DHT22;5268;49.346;9.522;2023-02-01T07:46:59;5.10;99.90
10441;DHT22;5268;49.346;9.522;2023-02-01T07:52:01;5.20;99.90
10441;DHT22;5268;49.346;9.522;2023-02-01T07:57:04;5.20;99.90
10441;DHT22;5268;49.346;9.522;2023-02-01T08:02:09;5.30;99.90
10441;DHT22;5268;49.346;9.522;2023-02-01T08:07:11;5.30;99.90
10441;DHT22;5268;49.346;9.522;2023-02-01T08:12:14;5.40;99.90
10441;DHT22;5268;49.346;9.522;2023-02-01T08:17:16;5.40;99.90
10441;DHT22;5268;49.346;9.522;2023-02-01T08:22:18;5.40;99.90
10441;DHT22;5268;49.346;9.522;2023-02-01T08:27:21;5.50;99.90
10441;DHT22;5268;49.346;9.522;2023-02-01T08:32:23;5.50;99.90
10441;DHT22;5268;49.346;9.522;2023-02-01T08:37:25;5.60;99.90
10441;DHT22;5268;49.346;9.522;2023-02-01T08:42:29;5.60;99.90
10441;DHT22;5268;49.346;9.522;2023-02-01T08:47:49;5.50;99.90
10441;DHT22;5268;49.346;9.522;2023-02-01T08:52:51;5.50;99.90
10441;DHT22;5268;49.346;9.522;2023-02-01T08:57:56;5.60;99.90
10441;DHT22;5268;49.346;9.522;2023-02-01T09:02:58;5.60;99.90
10441;DHT22;5268;49.346;9.522;2023-02-01T09:08:00;5.60;99.90
10441;DHT22;5268;49.346;9.522;2023-02-01T09:13:03;5.70;99.90
10441;DHT22;5268;49.346;9.522;2023-02-01T09:18:05;5.70;99.90
10441;DHT22;5268;49.346;9.522;2023-02-01T09:23:07;5.70;99.90
10441;DHT22;5268;49.346;9.522;2023-02-01T09:28:11;5.70;99.90
10441;DHT22;5268;49.346;9.522;2023-02-01T09:33:13;5.70;99.90
10441;DHT22;5268;49.346;9.522;2023-02-01T09:38:15;5.70;99.90
10441;DHT22;5268;49.346;9.522;2023-02-01T09:43:29;5.80;99.90
10441;DHT22;5268;49.346;9.522;2023-02-01T09:48:34;5.90;99.90
10441;DHT22;5268;49.346;9.522;2023-02-01T09:53:41;5.90;99.90
10441;DHT22;5268;49.346;9.522;2023-02-01T09:58:49;5.90;99.90
10441;DHT22;5268;49.346;9.522;2023-02-01T10:03:58;5.80;99.90
10441;DHT22;5268;49.346;9.522;2023-02-01T10:09:12;5.90;99.90
10441;DHT22;5268;49.346;9.522;2023-02-01T10:14:43;5.90;99.90
10441;DHT22;5268;49.346;9.522;2023-02-01T10:19:58;5.90;99.90
10441;DHT22;5268;49.346;9.522;2023-02-01T10:25:10;5.90;99.90
10441;DHT22;5268;49.346;9.522;2023-02-01T10:30:20;5.90;99.90
10441;DHT22;5268;49.346;9.522;2023-02-01T10:35:26;5.80;99.90
10441;DHT22;5268;49.346;9.522;2023-02-01T10:40:29;5.80;99.90
10441;DHT22;5268;49.346;9.522;2023-02-01T10:45:33;5.80;99.90
10441;DHT22;5268;49.346;9.522;2023-02-01T10:50:38;5.80;99.90
10441;DHT22;5268;49.346;9.522;2023-02-01T10:55:47;6.00;99.90
10441;DHT22;5268;49.346;9.522;2023-02-01T11:00:57;6.00;99.90
10441;DHT22;5268;49.346;9.522;2023-02-01T11:06:01;6.10;99.90
10441;DHT22;5268;49.346;9.522;2023-02-01T11:11:04;6.10;99.90
10441;DHT22;5268;49.346;9.522;2023-02-01T11:16:12;6.10;99.90
10441;DHT22;5268;49.346;9.522;2023-02-01T11:21:15;6.10;99.90
10441;DHT22;5268;49.346;9.522;2023-02-01T11:26:21;6.20;99.90
10441;DHT22;5268;49.346;9.522;2023-02-01T11:31:27;6.20;99.90
10441;DHT22;5268;49.346;9.522;2023-02-01T11:36:31;6.20;99.90
10441;DHT22;5268;49.346;9.522;2023-02-01T11:41:34;6.30;99.90
10441;DHT22;5268;49.346;9.522;2023-02-01T11:46:43;6.30;99.90
10441;DHT22;5268;49.346;9.522;2023-02-01T11:51:52;6.40;99.90
10441;DHT22;5268;49.346;9.522;2023-02-01T11:57:08;6.40;99.90
10441;DHT22;5268;49.346;9.522;2023-02-01T12:08:40;6.50;99.90
10441;DHT22;5268;49.346;9.522;2023-02-01T12:19:23;6.50;99.90
10441;DHT22;5268;49.346;9.522;2023-02-01T12:30:20;6.60;99.90
10441;DHT22;5268;49.346;9.522;2023-02-01T12:36:02;6.60;99.90
10441;DHT22;5268;49.346;9.522;2023-02-01T12:41:26;6.60;99.90
10441;DHT22;5268;49.346;9.522;2023-02-01T12:46:35;6.60;99.90
10441;DHT22;5268;49.346;9.522;2023-02-01T12:51:43;6.60;99.90
10441;DHT22;5268;49.346;9.522;2023-02-01T12:56:48;6.60;99.90
10441;DHT22;5268;49.346;9.522;2023-02-01T13:01:55;6.60;99.90
10441;DHT22;5268;49.346;9.522;2023-02-01T13:07:07;6.70;99.90
10441;DHT22;5268;49.346;9.522;2023-02-01T13:12:13;6.70;99.90
10441;DHT22;5268;49.346;9.522;2023-02-01T13:17:21;6.60;99.90
10441;DHT22;5268;49.346;9.522;2023-02-01T13:22:30;6.70;99.90
10441;DHT22;5268;49.346;9.522;2023-02-01T13:27:36;6.70;99.90
10441;DHT22;5268;49.346;9.522;2023-02-01T13:33:08;6.70;99.90
10441;DHT22;5268;49.346;9.522;2023-02-01T13:38:40;6.70;99.90
10441;DHT22;5268;49.346;9.522;2023-02-01T13:43:48;6.70;99.90
10441;DHT22;5268;49.346;9.522;2023-02-01T13:48:52;6.70;99.90
10441;DHT22;5268;49.346;9.522;2023-02-01T13:53:59;6.70;99.90
10441;DHT22;5268;49.346;9.522;2023-02-01T13:59:36;6.70;99.90
10441;DHT22;5268;49.346;9.522;2023-02-01T14:04:50;6.80;99.90
10441;DHT22;5268;49.346;9.522;2023-02-01T14:09:54;6.80;99.90
10441;DHT22;5268;49.346;9.522;2023-02-01T14:15:26;6.70;99.90
10441;DHT22;5268;49.346;9.522;2023-02-01T14:20:41;6.70;99.90
10441;DHT22;5268;49.346;9.522;2023-02-01T14:25:47;6.60;99.90
10441;DHT22;5268;49.346;9.522;2023-02-01T14:30:50;6.60;99.90
10441;DHT22;5268;49.346;9.522;2023-02-01T14:36:05;6.50;99.90
10441;DHT22;5268;49.346;9.522;2023-02-01T14:41:32;6.50;99.90
10441;DHT22;5268;49.346;9.522;2023-02-01T14:47:03;6.50;99.90
10441;DHT22;5268;49.346;9.522;2023-02-01T14:52:11;6.50;99.90
10441;DHT22;5268;49.346;9.522;2023-02-01T14:57:18;6.50;99.90
10441;DHT22;5268;49.346;9.522;2023-02-01T15:02:24;6.40;99.90
10441;DHT22;5268;49.346;9.522;2023-02-01T15:07:29;6.40;99.90
10441;DHT22;5268;49.346;9.522;2023-02-01T15:12:32;6.40;99.90
10441;DHT22;5268;49.346;9.522;2023-02-01T15:17:41;6.40;99.90
10441;DHT22;5268;49.346;9.522;2023-02-01T15:22:53;6.40;99.90
10441;DHT22;5268;49.346;9.522;2023-02-01T15:27:57;6.30;99.90
10441;DHT22;5268;49.346;9.522;2023-02-01T15:33:07;6.30;99.90
10441;DHT22;5268;49.346;9.522;2023-02-01T15:38:31;6.30;99.90
10441;DHT22;5268;49.346;9.522;2023-02-01T15:43:38;6.30;99.90
10441;DHT22;5268;49.346;9.522;2023-02-01T15:48:46;6.30;99.90
10441;DHT22;5268;49.346;9.522;2023-02-01T15:53:53;6.30;99.90
10441;DHT22;5268;49.346;9.522;2023-02-01T15:58:59;6.30;99.90
10441;DHT22;5268;49.346;9.522;2023-02-01T16:04:04;6.20;99.90
10441;DHT22;5268;49.346;9.522;2023-02-01T16:09:13;6.20;99.90
10441;DHT22;5268;49.346;9.522;2023-02-01T16:14:17;6.20;99.90
10441;DHT22;5268;49.346;9.522;2023-02-01T16:19:19;6.20;99.90
10441;DHT22;5268;49.346;9.522;2023-02-01T16:24:21;6.10;99.90
10441;DHT22;5268;49.346;9.522;2023-02-01T16:29:27;6.10;99.90
10441;DHT22;5268;49.346;9.522;2023-02-01T16:34:31;6.10;99.90
10441;DHT22;5268;49.346;9.522;2023-02-01T16:39:34;6.10;99.90
10441;DHT22;5268;49.346;9.522;2023-02-01T16:44:37;6.10;99.90
10441;DHT22;5268;49.346;9.522;2023-02-01T16:49:41;6.10;99.90
10441;DHT22;5268;49.346;9.522;2023-02-01T16:54:43;6.10;99.90
10441;DHT22;5268;49.346;9.522;2023-02-01T16:59:47;6.10;99.90
10441;DHT22;5268;49.346;9.522;2023-02-01T17:04:49;6.10;99.90
10441;DHT22;5268;49.346;9.522;2023-02-01T17:09:51;6.10;99.90
10441;DHT22;5268;49.346;9.522;2023-02-01T17:14:54;6.10;99.90
10441;DHT22;5268;49.346;9.522;2023-02-01T17:19:56;6.10;99.90
10441;DHT22;5268;49.346;9.522;2023-02-01T17:24:58;6.10;99.90
10441;DHT22;5268;49.346;9.522;2023-02-01T17:30:02;6.20;99.90
10441;DHT22;5268;49.346;9.522;2023-02-01T17:35:05;6.20;99.90
10441;DHT22;5268;49.346;9.522;2023-02-01T17:40:09;6.20;99.90
10441;DHT22;5268;49.346;9.522;2023-02-01T17:45:21;6.20;99.90
10441;DHT22;5268;49.346;9.522;2023-02-01T17:50:26;6.20;99.90
10441;DHT22;5268;49.346;9.522;2023-02-01T17:55:29;6.20;99.90
10441;DHT22;5268;49.346;9.522;2023-02-01T18:00:32;6.20;99.90
10441;DHT22;5268;49.346;9.522;2023-02-01T18:05:39;6.20;99.90
10441;DHT22;5268;49.346;9.522;2023-02-01T18:10:42;6.20;99.90
10441;DHT22;5268;49.346;9.522;2023-02-01T18:15:46;6.20;99.90
10441;DHT22;5268;49.346;9.522;2023-02-01T18:20:48;6.10;99.90
10441;DHT22;5268;49.346;9.522;2023-02-01T18:25:51;6.10;99.90
10441;DHT22;5268;49.346;9.522;2023-02-01T18:30:54;6.10;99.90
10441;DHT22;5268;49.346;9.522;2023-02-01T18:35:56;6.10;99.90
10441;DHT22;5268;49.346;9.522;2023-02-01T18:40:58;6.10;99.90
10441;DHT22;5268;49.346;9.522;2023-02-01T18:46:02;6.00;99.90
10441;DHT22;5268;49.346;9.522;2023-02-01T18:51:05;6.00;99.90
10441;DHT22;5268;49.346;9.522;2023-02-01T18:56:10;6.00;99.90
10441;DHT22;5268;49.346;9.522;2023-02-01T19:01:15;6.00;99.90
10441;DHT22;5268;49.346;9.522;2023-02-01T19:06:17;6.00;99.90
10441;DHT22;5268;49.346;9.522;2023-02-01T19:11:19;6.00;99.90
10441;DHT22;5268;49.346;9.522;2023-02-01T19:16:23;6.00;99.90
10441;DHT22;5268;49.346;9.522;2023-02-01T19:21:25;6.00;99.90
10441;DHT22;5268;49.346;9.522;2023-02-01T19:26:27;6.00;99.90
10441;DHT22;5268;49.346;9.522;2023-02-01T19:31:31;6.00;99.90
10441;DHT22;5268;49.346;9.522;2023-02-01T19:36:33;6.00;99.90
10441;DHT22;5268;49.346;9.522;2023-02-01T19:41:41;6.10;99.90
10441;DHT22;5268;49.346;9.522;2023-02-01T19:46:44;6.10;99.90
10441;DHT22;5268;49.346;9.522;2023-02-01T19:51:46;6.10;99.90
10441;DHT22;5268;49.346;9.522;2023-02-01T19:56:49;6.10;99.90
10441;DHT22;5268;49.346;9.522;2023-02-01T20:01:53;6.20;99.90
10441;DHT22;5268;49.346;9.522;2023-02-01T20:06:55;6.20;99.90
10441;DHT22;5268;49.346;9.522;2023-02-01T20:11:57;6.20;99.90
10441;DHT22;5268;49.346;9.522;2023-02-01T20:17:01;6.30;99.90
10441;DHT22;5268;49.346;9.522;2023-02-01T20:22:03;6.30;99.90
10441;DHT22;5268;49.346;9.522;2023-02-01T20:27:05;6.30;99.90
10441;DHT22;5268;49.346;9.522;2023-02-01T20:32:11;6.30;99.90
10441;DHT22;5268;49.346;9.522;2023-02-01T20:37:13;6.30;99.90
10441;DHT22;5268;49.346;9.522;2023-02-01T20:42:14;6.30;99.90
10441;DHT22;5268;49.346;9.522;2023-02-01T20:47:18;6.30;99.90
10441;DHT22;5268;49.346;9.522;2023-02-01T20:52:20;6.30;99.90
10441;DHT22;5268;49.346;9.522;2023-02-01T20:57:22;6.30;99.90
10441;DHT22;5268;49.346;9.522;2023-02-01T21:02:26;6.30;99.90
10441;DHT22;5268;49.346;9.522;2023-02-01T21:07:28;6.30;99.90
10441;DHT22;5268;49.346;9.522;2023-02-01T21:12:30;6.30;99.90
10441;DHT22;5268;49.346;9.522;2023-02-01T21:17:33;6.30;99.90
10441;DHT22;5268;49.346;9.522;2023-02-01T21:22:38;6.30;99.90
10441;DHT22;5268;49.346;9.522;2023-02-01T21:27:40;6.40;99.90
10441;DHT22;5268;49.346;9.522;2023-02-01T21:32:43;6.40;99.90
10441;DHT22;5268;49.346;9.522;2023-02-01T21:37:49;6.40;99.90
10441;DHT22;5268;49.346;9.522;2023-02-01T21:42:51;6.40;99.90
10441;DHT22;5268;49.346;9.522;2023-02-01T21:47:55;6.40;99.90
10441;DHT22;5268;49.346;9.522;2023-02-01T21:52:57;6.40;99.90
10441;DHT22;5268;49.346;9.522;2023-02-01T21:57:59;6.40;99.90
10441;DHT22;5268;49.346;9.522;2023-02-01T22:03:03;6.40;99.90
10441;DHT22;5268;49.346;9.522;2023-02-01T22:08:05;6.40;99.90
10441;DHT22;5268;49.346;9.522;2023-02-01T22:13:07;6.40;99.90
10441;DHT22;5268;49.346;9.522;2023-02-01T22:18:11;6.40;99.90
10441;DHT22;5268;49.346;9.522;2023-02-01T22:23:14;6.40;99.90
10441;DHT22;5268;49.346;9.522;2023-02-01T22:28:16;6.40;99.90
10441;DHT22;5268;49.346;9.522;2023-02-01T22:33:21;6.40;99.90
10441;DHT22;5268;49.346;9.522;2023-02-01T22:38:29;6.40;99.90
10441;DHT22;5268;49.346;9.522;2023-02-01T22:43:32;6.40;99.90
10441;DHT22;5268;49.346;9.522;2023-02-01T22:48:37;6.40;99.90
10441;DHT22;5268;49.346;9.522;2023-02-01T22:53:39;6.40;99.90
